Time;durP1;ratioP1;P1;durP2;ratioP2;P2;SDS_P1;SDS_P2;PMS_P1;PMS_P2;Temp;Humidity;BMP_temperature;BMP_pressure;BME280_temperature;BME280_humidity;BME280_pressure;Samples;Min_cycle;Max_cycle;Signal;HPM_P1;HPM_P2
2021/05/15 00:00:41;;;;;;;6.75;3.15;;;;;;;7.32;100.00;98753.38;5003805;28;20058;-76
2021/05/15 00:03:44;;;;;;;13.82;2.70;;;;;;;7.39;100.00;98755.75;4993630;28;20542;-75
2021/05/15 00:06:48;;;;;;;8.52;3.05;;;;;;;7.39;100.00;98750.22;4993251;28;20061;-75
2021/05/15 00:09:51;;;;;;;15.93;3.60;;;;;;;7.46;100.00;98747.03;4992791;28;20061;-76
2021/05/15 00:12:54;;;;;;;6.25;2.70;;;;;;;7.45;100.00;98742.00;4992273;28;20062;-80
2021/05/15 00:15:58;;;;;;;9.88;2.95;;;;;;;7.42;100.00;98740.19;4992537;28;20420;-80
2021/05/15 00:19:02;;;;;;;7.88;2.63;;;;;;;7.44;100.00;98727.38;4993582;28;20607;-80
2021/05/15 00:22:05;;;;;;;9.23;4.07;;;;;;;7.42;100.00;98724.31;4993227;28;20539;-80
2021/05/15 00:25:11;;;;;;;20.52;3.33;;;;;;;7.39;100.00;98718.97;4993233;28;20628;-81
2021/05/15 00:28:14;;;;;;;5.65;3.05;;;;;;;7.41;100.00;98717.25;4992874;28;20053;-81
2021/05/15 00:31:18;;;;;;;7.47;3.60;;;;;;;7.47;100.00;98715.31;4992157;28;20421;-80
2021/05/15 00:34:21;;;;;;;6.75;2.83;;;;;;;7.50;100.00;98708.81;4992034;28;20058;-80
2021/05/15 00:37:25;;;;;;;6.50;2.55;;;;;;;7.47;100.00;98704.25;4992810;28;20077;-80
2021/05/15 00:40:28;;;;;;;9.60;3.28;;;;;;;7.44;100.00;98701.69;4992728;28;20061;-80
2021/05/15 00:43:32;;;;;;;8.55;3.80;;;;;;;7.48;100.00;98697.47;4992576;28;20408;-80
2021/05/15 00:46:37;;;;;;;8.57;3.40;;;;;;;7.48;100.00;98691.94;4992400;28;20065;-81
2021/05/15 00:49:42;;;;;;;8.95;3.42;;;;;;;7.51;100.00;98687.44;4991477;28;20520;-81
2021/05/15 00:52:47;;;;;;;13.02;4.20;;;;;;;7.57;100.00;98686.25;4992525;28;20061;-80
2021/05/15 00:55:51;;;;;;;9.90;3.78;;;;;;;7.61;100.00;98678.50;5002986;28;20065;-76
2021/05/15 00:58:59;;;;;;;10.10;3.88;;;;;;;7.59;100.00;98677.47;4991846;28;20061;-77
2021/05/15 01:02:04;;;;;;;9.80;3.25;;;;;;;7.54;100.00;98676.13;4991862;28;20536;-75
2021/05/15 01:05:10;;;;;;;9.80;3.30;;;;;;;7.50;100.00;98675.59;4992043;28;20057;-76
2021/05/15 01:08:14;;;;;;;11.13;3.25;;;;;;;7.56;100.00;98670.88;4991800;28;20057;-77
2021/05/15 01:11:19;;;;;;;10.70;4.30;;;;;;;7.60;100.00;98665.16;4991899;28;20057;-80
2021/05/15 01:14:23;;;;;;;16.63;3.13;;;;;;;7.60;100.00;98668.66;4992687;28;20053;-80
2021/05/15 01:17:27;;;;;;;7.05;3.03;;;;;;;7.54;100.00;98659.50;4992472;28;20056;-75
2021/05/15 01:20:32;;;;;;;9.02;3.78;;;;;;;7.52;100.00;98661.25;4991867;28;20062;-75
2021/05/15 01:23:35;;;;;;;10.90;4.05;;;;;;;7.55;100.00;98657.50;4991999;28;20080;-76
2021/05/15 01:26:39;;;;;;;24.75;6.40;;;;;;;7.52;100.00;98653.69;4991660;28;20053;-74
2021/05/15 01:29:43;;;;;;;13.32;4.45;;;;;;;7.60;100.00;98645.75;4992240;28;20061;-75
2021/05/15 01:32:47;;;;;;;7.13;3.10;;;;;;;7.54;100.00;98648.44;4992292;28;20069;-75
2021/05/15 01:35:51;;;;;;;8.52;3.53;;;;;;;7.48;100.00;98644.06;4991855;28;20061;-76
2021/05/15 01:38:55;;;;;;;17.00;4.45;;;;;;;7.51;100.00;98643.13;4991313;28;20055;-75
2021/05/15 01:41:58;;;;;;;8.43;2.92;;;;;;;7.48;100.00;98631.00;4991951;28;20069;-75
2021/05/15 01:45:04;;;;;;;10.27;3.88;;;;;;;7.42;100.00;98630.16;4991207;28;20065;-75
2021/05/15 01:48:17;;;;;;;9.50;3.88;;;;;;;7.37;100.00;98630.84;4991047;28;20053;-76
2021/05/15 01:51:20;;;;;;;11.98;3.35;;;;;;;7.33;100.00;98630.28;4991400;28;20049;-75
2021/05/15 01:54:24;;;;;;;20.00;4.10;;;;;;;7.28;100.00;98625.44;4992156;28;20062;-75
2021/05/15 01:57:27;;;;;;;14.77;4.32;;;;;;;7.27;100.00;98617.63;4991759;28;20058;-75
2021/05/15 02:00:31;;;;;;;16.60;4.38;;;;;;;7.22;100.00;98610.75;4992041;28;20551;-75
2021/05/15 02:03:37;;;;;;;12.63;3.58;;;;;;;7.20;100.00;98613.25;4991808;28;20125;-75
2021/05/15 02:06:40;;;;;;;12.77;4.45;;;;;;;7.19;100.00;98611.72;4991435;28;20520;-75
2021/05/15 02:09:44;;;;;;;8.70;3.92;;;;;;;7.16;100.00;98604.38;4991709;28;20065;-75
2021/05/15 02:12:47;;;;;;;9.10;3.28;;;;;;;7.14;100.00;98609.63;4991297;28;20065;-76
2021/05/15 02:15:50;;;;;;;7.30;3.65;;;;;;;7.11;100.00;98595.97;4991907;28;20065;-75
2021/05/15 02:18:53;;;;;;;20.00;6.03;;;;;;;7.11;100.00;98591.22;4991384;28;20050;-76
2021/05/15 02:21:57;;;;;;;10.45;3.95;;;;;;;7.10;100.00;98598.00;4991647;28;20053;-76
2021/05/15 02:25:00;;;;;;;7.18;3.00;;;;;;;7.08;100.00;98583.88;4991686;28;20057;-80
2021/05/15 02:28:04;;;;;;;18.60;5.13;;;;;;;7.08;100.00;98581.09;4991442;28;20061;-79
2021/05/15 02:31:08;;;;;;;7.78;4.07;;;;;;;7.07;100.00;98582.34;4991603;28;20057;-79
2021/05/15 02:34:11;;;;;;;6.05;3.13;;;;;;;7.03;100.00;98576.28;4991142;28;20049;-79
2021/05/15 02:37:15;;;;;;;11.75;5.22;;;;;;;7.03;100.00;98565.19;4991274;28;20069;-79
2021/05/15 02:40:20;;;;;;;9.68;3.78;;;;;;;7.03;100.00;98565.19;4990544;28;20049;-79
2021/05/15 02:43:23;;;;;;;10.18;3.47;;;;;;;7.04;100.00;98561.16;4991703;28;20057;-79
2021/05/15 02:46:27;;;;;;;8.38;3.00;;;;;;;7.04;100.00;98554.91;4991515;28;20065;-79
2021/05/15 02:49:31;;;;;;;13.95;4.68;;;;;;;7.05;100.00;98546.09;4991218;28;20053;-80
2021/05/15 02:52:35;;;;;;;8.30;2.92;;;;;;;7.05;100.00;98548.88;4991694;28;20057;-80
2021/05/15 02:55:39;;;;;;;12.65;4.05;;;;;;;7.04;100.00;98544.56;4991163;28;20053;-80
2021/05/15 02:58:42;;;;;;;9.30;4.35;;;;;;;7.03;100.00;98543.06;4991153;28;20054;-79
2021/05/15 03:01:46;;;;;;;3.63;2.45;;;;;;;7.02;100.00;98535.97;4991131;28;20058;-79
2021/05/15 03:04:49;;;;;;;7.40;3.83;;;;;;;7.01;100.00;98528.94;5001726;28;20058;-79
2021/05/15 03:07:53;;;;;;;3.85;1.88;;;;;;;6.98;100.00;98518.81;4991328;28;20053;-81
2021/05/15 03:10:57;;;;;;;4.20;3.10;;;;;;;7.01;100.00;98520.63;4990264;28;20566;-81
2021/05/15 03:14:00;;;;;;;7.50;3.35;;;;;;;7.04;100.00;98514.13;4990985;28;20050;-80
2021/05/15 03:17:04;;;;;;;6.70;2.70;;;;;;;7.06;100.00;98516.41;4990876;28;20054;-82
2021/05/15 03:20:10;;;;;;;8.98;2.47;;;;;;;7.05;100.00;98512.13;4989866;28;20050;-82
2021/05/15 03:23:14;;;;;;;7.38;2.75;;;;;;;7.05;100.00;98506.56;4990273;28;20061;-81
2021/05/15 03:26:18;;;;;;;6.80;3.47;;;;;;;7.04;100.00;98503.03;4990835;28;20061;-81
2021/05/15 03:29:21;;;;;;;7.57;2.95;;;;;;;7.05;100.00;98501.81;4990399;28;20058;-81
2021/05/15 03:32:24;;;;;;;9.98;2.42;;;;;;;7.05;100.00;98507.34;4989677;28;20066;-81
2021/05/15 03:35:30;;;;;;;17.02;4.60;;;;;;;7.06;100.00;98497.78;4990943;28;20108;-81
2021/05/15 03:38:34;;;;;;;11.68;5.10;;;;;;;7.09;100.00;98490.53;4990619;28;20413;-81
2021/05/15 03:41:38;;;;;;;10.35;3.70;;;;;;;7.08;100.00;98489.00;4990383;28;20058;-81
2021/05/15 03:44:41;;;;;;;8.48;2.85;;;;;;;7.05;100.00;98487.97;4991358;28;20054;-81
2021/05/15 03:47:45;;;;;;;12.63;4.05;;;;;;;7.01;100.00;98487.44;4993969;28;20420;-81
2021/05/15 03:50:50;;;;;;;15.93;3.50;;;;;;;7.00;100.00;98482.34;4993902;28;20061;-81
2021/05/15 03:53:53;;;;;;;9.00;3.72;;;;;;;6.95;100.00;98486.59;4994226;28;20405;-81
2021/05/15 03:56:56;;;;;;;5.55;3.13;;;;;;;6.96;100.00;98482.56;4993383;28;20054;-81
2021/05/15 04:00:00;;;;;;;10.35;2.22;;;;;;;6.93;100.00;98472.47;4994026;28;20408;-80
2021/05/15 04:03:04;;;;;;;4.10;2.55;;;;;;;6.89;100.00;98475.44;4994007;28;20053;-81
2021/05/15 04:06:07;;;;;;;6.00;2.95;;;;;;;6.88;100.00;98467.63;4993728;28;20452;-81
2021/05/15 04:09:11;;;;;;;7.13;3.80;;;;;;;6.86;100.00;98470.13;4993590;28;20412;-80
2021/05/15 04:12:15;;;;;;;8.98;3.88;;;;;;;6.89;100.00;98458.06;4993739;28;20058;-81
2021/05/15 04:18:38;;;;;;;9.40;3.70;;;;;;;6.94;100.00;98451.84;4993024;28;20065;-80
2021/05/15 04:21:42;;;;;;;8.75;3.70;;;;;;;6.94;100.00;98454.63;4993656;28;20053;-80
2021/05/15 04:24:46;;;;;;;3.30;3.00;;;;;;;6.94;100.00;98457.38;4993244;28;20069;-80
2021/05/15 04:27:49;;;;;;;3.78;2.78;;;;;;;6.93;100.00;98457.88;4993406;28;20053;-81
2021/05/15 04:30:54;;;;;;;7.47;2.75;;;;;;;6.94;100.00;98449.09;4993333;28;20054;-81
2021/05/15 04:33:57;;;;;;;5.93;2.95;;;;;;;6.95;100.00;98447.84;4993486;28;20061;-81
2021/05/15 04:37:01;;;;;;;6.90;3.60;;;;;;;6.97;100.00;98445.38;4992931;28;20057;-80
2021/05/15 04:40:05;;;;;;;8.57;3.25;;;;;;;7.00;100.00;98438.06;4993172;28;20080;-81
2021/05/15 04:43:09;;;;;;;7.57;2.53;;;;;;;7.02;100.00;98430.81;4993252;28;20505;-80
2021/05/15 04:46:13;;;;;;;6.65;3.72;;;;;;;7.04;100.00;98433.09;4992917;28;20053;-81
2021/05/15 04:49:18;;;;;;;6.18;1.98;;;;;;;7.11;100.00;98438.97;4993132;28;20058;-80
2021/05/15 04:52:21;;;;;;;6.60;2.80;;;;;;;7.15;100.00;98436.75;4992507;28;20068;-81
2021/05/15 04:55:25;;;;;;;9.57;3.30;;;;;;;7.21;100.00;98445.88;4992894;28;20054;-80
2021/05/15 04:58:28;;;;;;;9.63;2.47;;;;;;;7.25;100.00;98434.59;4992994;28;20054;-80
2021/05/15 05:01:33;;;;;;;16.40;3.50;;;;;;;7.26;100.00;98436.88;4993342;28;20058;-80
2021/05/15 05:04:37;;;;;;;8.73;4.00;;;;;;;7.28;100.00;98428.84;4992685;28;20560;-80
2021/05/15 05:07:40;;;;;;;7.47;3.38;;;;;;;7.31;100.00;98438.94;4992513;28;20057;-80
2021/05/15 05:10:44;;;;;;;12.00;3.50;;;;;;;7.32;100.00;98425.88;4992569;28;20057;-80
2021/05/15 05:13:47;;;;;;;3.20;2.25;;;;;;;7.33;100.00;98428.13;4992630;28;20412;-81
2021/05/15 05:16:55;;;;;;;9.10;3.70;;;;;;;7.32;100.00;98421.06;4992663;28;20061;-80
2021/05/15 05:19:58;;;;;;;6.32;3.00;;;;;;;7.32;100.00;98415.53;4992606;28;20057;-80
2021/05/15 05:23:02;;;;;;;6.28;2.00;;;;;;;7.37;100.00;98417.59;4991791;28;20551;-80
2021/05/15 05:26:05;;;;;;;8.80;3.55;;;;;;;7.38;100.00;98413.59;4992122;28;20069;-80
2021/05/15 05:29:09;;;;;;;6.43;2.47;;;;;;;7.44;100.00;98417.16;4992065;28;20066;-79
2021/05/15 05:32:13;;;;;;;9.05;2.95;;;;;;;7.55;100.00;98419.28;4991472;28;20053;-80
2021/05/15 05:35:17;;;;;;;10.82;3.25;;;;;;;7.59;100.00;98417.06;4991697;28;20057;-80
2021/05/15 05:38:20;;;;;;;8.07;2.50;;;;;;;7.62;100.00;98405.72;4989848;28;20365;-81
2021/05/15 05:41:25;;;;;;;4.15;2.20;;;;;;;7.68;100.00;98414.13;4990081;28;20053;-79
2021/05/15 05:44:28;;;;;;;5.22;2.22;;;;;;;7.72;100.00;98405.56;4991408;28;20058;-79
2021/05/15 05:47:32;;;;;;;9.60;3.13;;;;;;;7.73;100.00;98413.41;4991437;28;20528;-80
2021/05/15 05:50:36;;;;;;;13.65;3.75;;;;;;;7.72;100.00;98408.34;4991320;28;20416;-80
2021/05/15 05:53:39;;;;;;;3.85;2.60;;;;;;;7.76;100.00;98412.41;4991079;28;20058;-80
2021/05/15 05:56:43;;;;;;;9.20;3.78;;;;;;;7.81;100.00;98411.69;4991206;28;20228;-80
2021/05/15 05:59:46;;;;;;;6.88;2.38;;;;;;;7.88;100.00;98396.63;4991086;28;20531;-79
2021/05/15 06:02:49;;;;;;;14.20;2.45;;;;;;;8.00;100.00;98396.22;4991069;28;20066;-80
2021/05/15 06:05:53;;;;;;;9.48;4.32;;;;;;;8.11;100.00;98395.53;4990949;28;20058;-79
2021/05/15 06:08:58;;;;;;;10.25;3.92;;;;;;;8.19;100.00;98391.03;4989448;28;20110;-79
2021/05/15 06:12:01;;;;;;;10.05;3.55;;;;;;;8.27;100.00;98397.69;4990748;28;20531;-80
2021/05/15 06:15:06;;;;;;;12.98;4.10;;;;;;;8.32;100.00;98394.19;4990618;28;20065;-79
2021/05/15 06:18:10;;;;;;;21.73;5.05;;;;;;;8.38;100.00;98392.22;4990775;28;20062;-80
2021/05/15 06:21:14;;;;;;;13.93;4.72;;;;;;;8.38;100.00;98381.13;4990850;28;20061;-80
2021/05/15 06:24:17;;;;;;;12.38;5.20;;;;;;;8.45;100.00;98386.19;4990615;28;20527;-80
2021/05/15 06:27:21;;;;;;;14.13;5.72;;;;;;;8.46;100.00;98376.63;4989940;28;20069;-81
2021/05/15 06:30:25;;;;;;;11.07;4.60;;;;;;;8.52;100.00;98377.41;4990373;28;20073;-80
2021/05/15 06:33:28;;;;;;;13.02;5.82;;;;;;;8.56;100.00;98375.13;4989455;28;20065;-80
2021/05/15 06:36:31;;;;;;;12.77;4.45;;;;;;;8.60;100.00;98364.56;4990499;28;20057;-80
2021/05/15 06:39:35;;;;;;;13.77;3.95;;;;;;;8.63;100.00;98373.91;4990415;28;20429;-79
2021/05/15 06:42:39;;;;;;;13.05;4.60;;;;;;;8.65;100.00;98366.59;4990366;28;20057;-79
2021/05/15 06:45:43;;;;;;;13.38;3.85;;;;;;;8.66;100.00;98368.13;4990163;28;20073;-80
2021/05/15 06:48:46;;;;;;;12.82;3.15;;;;;;;8.65;100.00;98361.06;4990435;28;20069;-81
2021/05/15 06:51:49;;;;;;;19.23;4.88;;;;;;;8.71;100.00;98364.59;4990264;28;20049;-81
2021/05/15 06:54:53;;;;;;;10.57;4.88;;;;;;;8.75;100.00;98364.38;4990587;28;20303;-80
2021/05/15 06:57:56;;;;;;;19.63;6.13;;;;;;;8.79;100.00;98362.84;4990443;28;20058;-80
2021/05/15 07:01:00;;;;;;;10.63;5.47;;;;;;;8.81;100.00;98363.16;5003360;28;20041;-80
2021/05/15 07:04:03;;;;;;;12.75;4.63;;;;;;;8.88;100.00;98356.34;4989304;28;20539;-82
2021/05/15 07:07:07;;;;;;;15.10;5.63;;;;;;;8.94;100.00;98354.34;4990056;28;20213;-80
2021/05/15 07:10:11;;;;;;;16.20;5.63;;;;;;;8.99;100.00;98340.47;4989930;28;20057;-81
2021/05/15 07:13:14;;;;;;;13.88;5.60;;;;;;;9.14;100.00;98345.78;4990161;28;20062;-81
2021/05/15 07:16:18;;;;;;;14.63;4.22;;;;;;;9.37;100.00;98343.81;4989557;28;20073;-80
2021/05/15 07:19:22;;;;;;;15.27;4.22;;;;;;;9.63;100.00;98342.31;4993009;28;20050;-81
2021/05/15 07:22:27;;;;;;;14.65;3.35;;;;;;;9.75;100.00;98337.50;4997047;28;20429;-80
2021/05/15 07:25:30;;;;;;;15.38;4.63;;;;;;;9.70;100.00;98338.25;4993943;28;20073;-79
2021/05/15 07:28:35;;;;;;;8.27;4.47;;;;;;;9.55;100.00;98329.44;4993919;28;20053;-81
2021/05/15 07:31:38;;;;;;;14.07;4.95;;;;;;;9.43;100.00;98328.66;5004291;28;20057;-80
2021/05/15 07:34:42;;;;;;;13.35;5.40;;;;;;;9.49;100.00;98321.06;4993673;28;20053;-80
2021/05/15 07:37:46;;;;;;;10.95;4.60;;;;;;;9.56;100.00;98326.13;4993620;28;20061;-80
2021/05/15 07:40:50;;;;;;;17.63;5.18;;;;;;;9.70;100.00;98318.81;4993297;28;20064;-81
2021/05/15 07:43:53;;;;;;;13.18;4.22;;;;;;;9.77;100.00;98321.81;4993513;28;20077;-80
2021/05/15 07:46:57;;;;;;;9.98;4.45;;;;;;;9.70;100.00;98311.22;4993918;28;20077;-80
2021/05/15 07:50:00;;;;;;;12.52;4.72;;;;;;;9.68;100.00;98310.22;4993507;28;20054;-80
2021/05/15 07:53:03;;;;;;;16.23;4.05;;;;;;;9.65;100.00;98311.22;4993322;28;20062;-79
2021/05/15 07:56:07;;;;;;;16.08;4.82;;;;;;;9.55;100.00;98307.19;4993086;28;20057;-80
2021/05/15 07:59:10;;;;;;;10.50;4.22;;;;;;;9.51;100.00;98315.78;4993106;28;20057;-79
2021/05/15 08:02:14;;;;;;;13.90;4.18;;;;;;;9.58;100.00;98311.72;4993060;28;20061;-80
2021/05/15 08:05:17;;;;;;;12.27;4.10;;;;;;;9.58;100.00;98311.72;4992584;28;20057;-79
2021/05/15 08:08:20;;;;;;;10.50;3.28;;;;;;;9.53;100.00;98309.72;4992418;28;20524;-78
2021/05/15 08:11:24;;;;;;;13.70;4.25;;;;;;;9.59;100.00;98310.47;4993123;28;20058;-80
2021/05/15 08:14:28;;;;;;;12.70;4.15;;;;;;;9.68;100.00;98305.41;4992687;28;20062;-78
2021/05/15 08:17:33;;;;;;;11.18;5.05;;;;;;;9.78;100.00;98303.13;4992887;28;20061;-78
2021/05/15 08:20:38;;;;;;;10.77;4.00;;;;;;;9.89;100.00;98309.44;4993046;28;20065;-77
2021/05/15 08:23:41;;;;;;;12.80;4.22;;;;;;;10.09;100.00;98305.56;4992639;28;20065;-79
2021/05/15 08:26:45;;;;;;;19.10;6.32;;;;;;;10.18;100.00;98304.59;4992329;28;20069;-79
2021/05/15 08:29:48;;;;;;;17.67;4.60;;;;;;;10.20;100.00;98305.56;4992198;28;20061;-79
2021/05/15 08:32:52;;;;;;;7.28;2.80;;;;;;;10.26;100.00;98309.13;4992464;28;20061;-80
2021/05/15 08:35:56;;;;;;;11.60;3.92;;;;;;;10.38;100.00;98299.44;4992443;28;20057;-79
2021/05/15 08:39:00;;;;;;;15.52;4.30;;;;;;;10.52;100.00;98295.63;4992598;28;20409;-80
2021/05/15 08:42:03;;;;;;;11.18;4.13;;;;;;;10.60;100.00;98293.78;4992131;28;20061;-78
2021/05/15 08:45:16;;;;;;;12.18;4.30;;;;;;;10.55;100.00;98293.81;4992151;28;20085;-80
2021/05/15 08:48:20;;;;;;;11.95;5.00;;;;;;;10.48;100.00;98292.31;4991729;28;20069;-77
2021/05/15 08:51:25;;;;;;;10.93;5.03;;;;;;;10.33;100.00;98291.88;4992436;28;20547;-79
2021/05/15 08:54:29;;;;;;;19.38;5.00;;;;;;;10.42;100.00;98283.25;4990836;28;20417;-78
2021/05/15 08:57:34;;;;;;;21.25;4.00;;;;;;;10.38;100.00;98282.75;4992357;28;20066;-78
2021/05/15 09:00:41;;;;;;;11.65;4.43;;;;;;;10.37;100.00;98281.22;4992089;28;20049;-78
2021/05/15 09:03:44;;;;;;;14.45;3.70;;;;;;;10.32;100.00;98279.25;4991763;28;20061;-77
2021/05/15 09:06:47;;;;;;;21.05;5.47;;;;;;;10.42;100.00;98276.91;4991923;28;20417;-79
2021/05/15 09:09:51;;;;;;;9.43;3.13;;;;;;;10.54;100.00;98279.16;4991617;28;20428;-78
2021/05/15 09:13:18;;;;;;;9.27;3.47;;;;;;;10.73;100.00;98278.53;4993113;28;20065;-77
2021/05/15 09:16:22;;;;;;;11.30;3.22;;;;;;;10.78;100.00;98278.53;4991430;28;20046;-78
2021/05/15 09:19:28;;;;;;;9.75;3.70;;;;;;;10.82;100.00;98269.88;4991965;28;20061;-78
2021/05/15 09:22:32;;;;;;;9.75;3.63;;;;;;;10.82;100.00;98265.06;4991630;28;20600;-79
2021/05/15 09:25:35;;;;;;;9.27;3.08;;;;;;;10.80;100.00;98269.63;4992755;28;20057;-77
2021/05/15 09:28:39;;;;;;;14.55;3.67;;;;;;;10.64;100.00;98269.22;4991695;28;20053;-78
2021/05/15 09:31:45;;;;;;;9.38;3.42;;;;;;;10.52;100.00;98267.00;4991607;28;20077;-79
2021/05/15 09:34:49;;;;;;;16.27;4.95;;;;;;;10.51;100.00;98271.06;4991455;28;20053;-77
2021/05/15 09:37:53;;;;;;;12.55;5.40;;;;;;;10.49;100.00;98266.00;4991515;28;20069;-77
2021/05/15 09:40:57;;;;;;;17.60;5.70;;;;;;;10.47;100.00;98265.78;4990321;28;20434;-78
2021/05/15 09:44:01;;;;;;;7.75;3.42;;;;;;;10.63;100.00;98264.91;4990714;28;20065;-79
2021/05/15 09:47:05;;;;;;;11.85;3.22;;;;;;;10.88;100.00;98256.66;4991297;28;20634;-79
2021/05/15 09:50:13;;;;;;;10.93;4.60;;;;;;;11.09;100.00;98250.19;4991202;28;20073;-79
2021/05/15 09:53:20;;;;;;;7.57;3.30;;;;;;;11.24;100.00;98244.28;4990780;28;20394;-80
2021/05/15 09:56:31;;;;;;;7.72;3.30;;;;;;;11.69;100.00;98241.84;4990921;28;20559;-80
2021/05/15 09:59:45;;;;;;;;;;;;;;;12.04;100.00;98233.38;4991470;28;20404;-80
2021/05/15 10:02:55;;;;;;;3.42;1.90;;;;;;;12.13;100.00;98228.16;4991334;28;19922;-80
2021/05/15 10:06:06;;;;;;;4.65;2.00;;;;;;;12.16;100.00;98224.34;4990993;28;20076;-79
2021/05/15 10:09:09;;;;;;;7.37;3.20;;;;;;;12.19;100.00;98228.84;4990703;28;20062;-80
2021/05/15 10:12:13;;;;;;;8.85;2.47;;;;;;;12.02;100.00;98217.13;4990667;28;20049;-79
2021/05/15 10:15:16;;;;;;;9.02;2.88;;;;;;;11.99;100.00;98223.03;4990676;28;20065;-79
2021/05/15 10:18:20;;;;;;;2.35;1.88;;;;;;;11.94;100.00;98232.19;4989067;28;20058;-79
2021/05/15 10:21:23;;;;;;;6.90;2.92;;;;;;;11.77;100.00;98224.03;4990834;28;20053;-79
2021/05/15 10:24:29;;;;;;;10.98;2.72;;;;;;;11.67;100.00;98220.09;4990854;28;20057;-80
2021/05/15 10:27:36;;;;;;;8.13;2.58;;;;;;;11.64;100.00;98223.88;4990618;28;20449;-78
2021/05/15 10:30:39;;;;;;;8.07;2.92;;;;;;;11.69;100.00;98217.53;4990547;28;20527;-78
2021/05/15 10:33:48;;;;;;;5.78;1.92;;;;;;;11.76;100.00;98228.06;4990500;28;20053;-78
2021/05/15 10:36:52;;;;;;;4.18;2.38;;;;;;;11.93;100.00;98225.13;4990280;28;20126;-78
2021/05/15 10:39:55;;;;;;;16.35;2.85;;;;;;;12.02;100.00;98211.56;4990012;28;20059;-77
2021/05/15 10:43:00;;;;;;;5.78;2.08;;;;;;;12.21;100.00;98210.84;5002899;28;20057;-78
2021/05/15 10:46:28;;;;;;;3.85;2.00;;;;;;;12.44;100.00;98200.88;5009706;28;20057;-76
2021/05/15 10:49:32;;;;;;;9.18;3.38;;;;;;;12.61;100.00;98204.19;5009501;28;20053;-77
2021/05/15 10:52:45;;;;;;;5.97;3.00;;;;;;;12.80;100.00;98202.13;5009866;28;20053;-77
2021/05/15 10:56:13;;;;;;;4.88;1.45;;;;;;;13.08;100.00;98196.16;5013956;28;20582;-77
2021/05/15 10:59:19;;;;;;;4.95;1.52;;;;;;;13.38;100.00;98194.59;5013567;28;20308;-77
2021/05/15 11:02:40;;;;;;;4.55;2.00;;;;;;;13.37;100.00;98190.31;5015052;28;20323;-76
2021/05/15 11:05:45;;;;;;;3.88;1.67;;;;;;;13.43;100.00;98187.41;5013944;28;20061;-77
2021/05/15 11:09:06;;;;;;;3.60;2.20;;;;;;;13.53;100.00;98178.09;5013629;28;20052;-77
2021/05/15 11:12:15;;;;;;;5.72;2.10;;;;;;;13.50;100.00;98184.75;5013674;28;20451;-77
2021/05/15 11:15:21;;;;;;;4.78;1.70;;;;;;;13.50;100.00;98183.97;5013732;28;20073;-76
2021/05/15 11:18:28;;;;;;;2.65;1.20;;;;;;;13.33;100.00;98180.72;5013060;28;20263;-77
2021/05/15 11:21:34;;;;;;;2.90;1.90;;;;;;;13.12;100.00;98183.38;5013656;28;20523;-76
2021/05/15 11:24:38;;;;;;;4.20;1.25;;;;;;;12.86;100.00;98170.03;5013670;28;20072;-76
2021/05/15 11:27:49;;;;;;;4.68;1.73;;;;;;;12.87;100.00;98173.59;5013491;28;20057;-76
2021/05/15 11:30:53;;;;;;;;;;;;;;;12.66;100.00;98165.03;5014304;28;20069;-77
2021/05/15 11:34:13;;;;;;;5.20;1.58;;;;;;;12.54;100.00;98174.84;5013234;28;20291;-76
2021/05/15 11:37:16;;;;;;;4.25;1.58;;;;;;;12.61;100.00;98165.09;5011469;28;20416;-78
2021/05/15 11:40:19;;;;;;;6.90;2.55;;;;;;;12.58;100.00;98161.31;5012040;28;20057;-78
2021/05/15 11:43:31;;;;;;;7.20;2.30;;;;;;;12.47;100.00;98166.34;5013351;28;20072;-77
2021/05/15 11:46:35;;;;;;;7.97;1.70;;;;;;;12.27;100.00;98169.66;5013136;28;20053;-78
2021/05/15 11:49:39;;;;;;;5.22;1.90;;;;;;;12.00;100.00;98163.91;5012450;28;20511;-77
2021/05/15 11:52:42;;;;;;;6.95;2.35;;;;;;;11.94;100.00;98166.00;5012906;28;20068;-78
2021/05/15 11:55:46;;;;;;;4.75;2.10;;;;;;;11.90;100.00;98162.75;5012599;28;20060;-79
2021/05/15 11:58:57;;;;;;;5.75;2.03;;;;;;;11.75;100.00;98165.22;5012359;28;20060;-80
2021/05/15 12:02:00;;;;;;;;;;;;;;;11.74;100.00;98149.75;5013549;28;20052;-79
2021/05/15 12:05:13;;;;;;;6.32;1.40;;;;;;;11.67;100.00;98153.16;5011208;28;20403;-80
2021/05/15 12:08:18;;;;;;;6.18;1.83;;;;;;;11.41;100.00;98158.47;5011359;28;20090;-81
2021/05/15 12:11:25;;;;;;;6.65;2.70;;;;;;;11.19;100.00;98153.13;5012315;28;20061;-81
2021/05/15 12:14:29;;;;;;;3.58;1.95;;;;;;;11.00;100.00;98155.78;5012203;28;20061;-82
2021/05/15 12:17:33;;;;;;;6.68;2.47;;;;;;;10.82;100.00;98164.06;5012276;28;20056;-82
2021/05/15 12:20:45;;;;;;;6.43;1.83;;;;;;;10.64;100.00;98165.47;5011157;28;20065;-78
2021/05/15 12:23:49;;;;;;;8.95;3.40;;;;;;;10.44;100.00;98163.06;5011170;28;20061;-79
2021/05/15 12:26:52;;;;;;;5.15;2.53;;;;;;;10.24;100.00;98169.78;5011817;28;20065;-78
2021/05/15 12:30:06;;;;;;;7.03;3.25;;;;;;;10.10;100.00;98179.16;5011898;28;20053;-78
2021/05/15 12:33:10;;;;;;;3.08;1.50;;;;;;;10.07;100.00;98173.88;5012358;28;20416;-78
2021/05/15 12:36:13;;;;;;;17.35;2.78;;;;;;;10.05;100.00;98170.84;5011472;28;20072;-77
2021/05/15 12:39:17;;;;;;;6.28;3.05;;;;;;;10.17;100.00;98173.09;5011447;28;20165;-81
2021/05/15 12:42:30;;;;;;;5.10;2.28;;;;;;;10.38;100.00;98165.88;5011592;28;20456;-80
2021/05/15 12:45:42;;;;;;;6.13;2.70;;;;;;;10.55;100.00;98160.97;5011692;28;20057;-80
2021/05/15 12:49:01;;;;;;;5.47;2.72;;;;;;;10.83;100.00;98160.03;5011626;28;20065;-77
2021/05/15 12:52:19;;;;;;;8.30;2.75;;;;;;;11.16;100.00;98156.94;5011536;28;20065;-79
2021/05/15 12:58:05;;;;;;;5.95;2.45;;;;;;;11.51;100.00;98151.25;4991113;23;20372;-73
2021/05/15 13:01:15;;;;;;;8.35;3.20;;;;;;;11.52;100.00;98149.97;4994482;28;20053;-75
2021/05/15 13:04:26;;;;;;;2.90;1.70;;;;;;;11.37;100.00;98153.16;4993694;28;20509;-75
2021/05/15 13:07:30;;;;;;;7.78;2.63;;;;;;;11.13;100.00;98153.16;4994538;28;20057;-76
2021/05/15 13:10:35;;;;;;;14.45;1.77;;;;;;;10.95;100.00;98161.44;4994379;28;20057;-75
2021/05/15 13:13:40;;;;;;;4.78;2.10;;;;;;;10.68;100.00;98161.13;4994461;28;20065;-76
2021/05/15 13:16:43;;;;;;;4.93;2.08;;;;;;;10.46;100.00;98158.50;4994462;28;20053;-74
2021/05/15 13:19:48;;;;;;;5.45;1.73;;;;;;;10.34;100.00;98159.06;4993201;28;20053;-76
2021/05/15 13:22:51;;;;;;;5.43;2.17;;;;;;;10.33;100.00;98163.88;4994016;28;20395;-75
2021/05/15 13:25:55;;;;;;;4.53;2.63;;;;;;;10.42;100.00;98169.13;4993973;28;20045;-75
2021/05/15 13:28:59;;;;;;;4.10;1.73;;;;;;;10.50;100.00;98167.31;4991892;28;20053;-75
2021/05/15 13:32:04;;;;;;;5.82;2.22;;;;;;;10.62;100.00;98168.75;4989986;23;20529;-75
2021/05/15 13:35:14;;;;;;;6.53;2.42;;;;;;;10.68;100.00;98158.34;4974175;28;20049;-75
2021/05/15 13:38:18;;;;;;;3.80;2.10;;;;;;;10.71;100.00;98159.34;4963322;28;20050;-75
2021/05/15 13:41:22;;;;;;;6.55;1.70;;;;;;;10.68;100.00;98165.19;4974921;28;20054;-75
2021/05/15 13:44:25;;;;;;;5.40;1.83;;;;;;;10.58;100.00;98162.72;4974765;28;20046;-75
2021/05/15 13:47:29;;;;;;;5.53;1.98;;;;;;;10.43;100.00;98156.75;4975079;28;20070;-75
2021/05/15 13:50:32;;;;;;;4.78;1.60;;;;;;;10.43;100.00;98151.19;4974872;28;20050;-74
2021/05/15 13:53:37;;;;;;;6.70;2.28;;;;;;;10.53;100.00;98152.38;4962774;28;20042;-74
2021/05/15 13:56:41;;;;;;;4.35;1.38;;;;;;;10.79;100.00;98142.81;4974361;28;20065;-75
2021/05/15 13:59:45;;;;;;;4.00;1.50;;;;;;;11.04;100.00;98147.94;4974097;28;20490;-75
2021/05/15 14:02:48;;;;;;;2.25;1.10;;;;;;;11.34;100.00;98131.94;4972894;28;20691;-75
2021/05/15 14:05:52;;;;;;;3.13;1.55;;;;;;;11.49;100.00;98130.75;4974244;28;20526;-72
2021/05/15 14:08:55;;;;;;;5.43;2.85;;;;;;;11.47;100.00;98130.53;4953824;29;20050;-71
2021/05/15 14:11:59;;;;;;;4.07;1.27;;;;;;;11.49;100.00;98125.94;4959418;28;20041;-75
2021/05/15 14:15:05;;;;;;;2.83;0.95;;;;;;;11.47;100.00;98128.50;4972569;28;20045;-75
2021/05/15 14:18:08;;;;;;;3.70;0.90;;;;;;;11.43;100.00;98128.03;4974187;28;20115;-76
2021/05/15 14:21:12;;;;;;;4.60;1.20;;;;;;;11.41;100.00;98125.03;4962270;28;20053;-74
2021/05/15 14:24:16;;;;;;;3.13;1.50;;;;;;;11.45;100.00;98114.34;4974185;28;20062;-75
2021/05/15 14:27:20;;;;;;;7.28;1.67;;;;;;;11.32;100.00;98115.00;4974171;28;20045;-75